createdAt,value
2019-01-27T00:00:38.457Z,992.11
2019-01-27T00:01:38.464Z,991.98
2019-01-27T00:02:38.458Z,992.02
2019-01-27T00:03:38.448Z,992.10
2019-01-27T00:04:38.424Z,992.19
2019-01-27T00:05:38.412Z,992.06
2019-01-27T00:06:38.391Z,992.12
2019-01-27T00:07:38.405Z,992.09
2019-01-27T00:08:38.397Z,992.26
2019-01-27T00:09:38.383Z,992.25
2019-01-27T00:10:38.361Z,992.13
2019-01-27T00:11:38.383Z,992.08
2019-01-27T00:12:38.336Z,992.07
2019-01-27T00:13:38.347Z,992.08
2019-01-27T00:14:38.327Z,991.97
2019-01-27T00:15:38.295Z,992.05
2019-01-27T00:16:38.302Z,992.01
2019-01-27T00:17:38.283Z,992.06
2019-01-27T00:18:38.308Z,992.00
2019-01-27T00:19:38.277Z,991.97
2019-01-27T00:20:38.251Z,992.02
2019-01-27T00:21:38.230Z,991.98
2019-01-27T00:22:38.238Z,992.01
2019-01-27T00:23:38.210Z,992.04
2019-01-27T00:24:38.240Z,992.06
2019-01-27T00:25:38.187Z,991.96
2019-01-27T00:26:38.194Z,991.91
2019-01-27T00:27:38.218Z,991.89
2019-01-27T00:28:38.167Z,991.90
2019-01-27T00:29:38.154Z,991.94
2019-01-27T00:30:38.130Z,991.92
2019-01-27T00:31:38.133Z,991.90
2019-01-27T00:32:38.106Z,992.04
2019-01-27T00:33:38.100Z,991.83
2019-01-27T00:34:38.107Z,991.81
2019-01-27T00:35:38.079Z,991.81
2019-01-27T00:36:38.087Z,991.86
2019-01-27T00:37:38.064Z,991.82
2019-01-27T00:38:38.038Z,991.79
2019-01-27T00:39:38.064Z,991.76
2019-01-27T00:40:38.017Z,991.73
2019-01-27T00:41:38.014Z,991.76
2019-01-27T00:42:38.010Z,991.75
2019-01-27T00:43:37.985Z,991.68
2019-01-27T00:44:38.009Z,991.66
2019-01-27T00:45:38.031Z,991.68
2019-01-27T00:46:37.953Z,991.72
2019-01-27T00:47:37.952Z,991.68
2019-01-27T00:48:37.947Z,991.67
2019-01-27T00:49:37.955Z,991.65
2019-01-27T00:50:37.916Z,991.67
2019-01-27T00:51:37.923Z,991.61
2019-01-27T00:52:37.886Z,991.68
2019-01-27T00:53:37.890Z,991.62
2019-01-27T00:54:37.895Z,991.64
2019-01-27T00:55:37.863Z,991.69
2019-01-27T00:56:37.855Z,991.63
2019-01-27T00:57:37.847Z,991.59
2019-01-27T00:58:37.830Z,991.55
2019-01-27T00:59:37.874Z,991.55
2019-01-27T01:00:37.803Z,991.44
2019-01-27T01:01:37.795Z,991.44
2019-01-27T01:02:37.787Z,991.59
2019-01-27T01:03:37.769Z,991.51
2019-01-27T01:04:37.780Z,991.63
2019-01-27T01:05:37.762Z,991.53
2019-01-27T01:06:37.732Z,991.52
2019-01-27T01:07:37.729Z,991.54
2019-01-27T01:08:37.713Z,991.47
2019-01-27T01:09:37.722Z,991.57
2019-01-27T01:10:37.702Z,991.57
2019-01-27T01:11:37.676Z,991.54
2019-01-27T01:12:37.670Z,991.49
2019-01-27T01:13:37.662Z,991.53
2019-01-27T01:14:37.663Z,991.44
2019-01-27T01:15:37.661Z,991.35
2019-01-27T01:16:37.644Z,991.36
2019-01-27T01:17:37.612Z,991.34
2019-01-27T01:18:37.602Z,991.28
2019-01-27T01:19:37.610Z,991.45
2019-01-27T01:20:37.585Z,991.41
2019-01-27T01:21:37.583Z,991.34
2019-01-27T01:22:37.563Z,991.35
2019-01-27T01:23:37.551Z,991.30
2019-01-27T01:24:37.566Z,991.30
2019-01-27T01:25:37.543Z,991.14
2019-01-27T01:26:37.524Z,991.18
2019-01-27T01:27:37.512Z,991.07
2019-01-27T01:28:37.527Z,991.13
2019-01-27T01:29:37.481Z,991.10
2019-01-27T01:30:37.507Z,991.16
2019-01-27T01:31:37.478Z,991.08
2019-01-27T01:32:38.426Z,991.07
2019-01-27T01:33:37.456Z,991.06
2019-01-27T01:34:37.454Z,991.17
2019-01-27T01:35:37.437Z,991.01
2019-01-27T01:36:37.412Z,990.99
2019-01-27T01:37:37.423Z,991.04
2019-01-27T01:38:37.387Z,990.97
2019-01-27T01:39:37.375Z,990.95
2019-01-27T01:40:37.398Z,990.98
2019-01-27T01:41:37.353Z,991.02
2019-01-27T01:42:37.341Z,991.07
2019-01-27T01:43:37.333Z,990.90
2019-01-27T01:44:37.334Z,990.88
2019-01-27T01:45:37.326Z,990.85
2019-01-27T01:46:37.285Z,990.88
2019-01-27T01:47:37.281Z,990.80
2019-01-27T01:48:37.281Z,990.71
2019-01-27T01:49:37.271Z,990.68
2019-01-27T01:50:37.268Z,990.68
2019-01-27T01:51:37.234Z,990.68
2019-01-27T01:52:37.229Z,990.64
2019-01-27T01:53:37.239Z,990.59
2019-01-27T01:54:37.212Z,990.56
2019-01-27T01:55:37.210Z,990.58
2019-01-27T01:56:37.203Z,990.55
2019-01-27T01:57:37.201Z,990.51
2019-01-27T01:58:37.168Z,990.63
2019-01-27T01:59:37.165Z,990.50
2019-01-27T02:00:37.165Z,990.45
2019-01-27T02:01:37.134Z,990.57
2019-01-27T02:02:37.136Z,990.54
2019-01-27T02:03:37.098Z,990.51
2019-01-27T02:04:37.108Z,990.53
2019-01-27T02:05:37.115Z,990.48
2019-01-27T02:06:37.073Z,990.42
2019-01-27T02:07:37.059Z,990.42
2019-01-27T02:08:37.059Z,990.43
2019-01-27T02:09:37.038Z,990.44
2019-01-27T02:10:37.032Z,990.42
2019-01-27T02:11:38.522Z,990.40
2019-01-27T02:12:37.001Z,990.29
2019-01-27T02:13:37.008Z,990.26
2019-01-27T02:14:36.994Z,990.35
2019-01-27T02:15:36.975Z,990.34
2019-01-27T02:16:36.985Z,990.27
2019-01-27T02:17:36.956Z,990.14
2019-01-27T02:18:36.949Z,990.17
2019-01-27T02:19:36.954Z,990.17
2019-01-27T02:20:36.909Z,990.14
2019-01-27T02:21:36.915Z,990.15
2019-01-27T02:22:36.896Z,990.16
2019-01-27T02:23:36.898Z,990.04
2019-01-27T02:24:36.875Z,990.09
2019-01-27T02:25:36.865Z,990.08
2019-01-27T02:26:36.875Z,989.98
2019-01-27T02:27:36.860Z,989.92
2019-01-27T02:28:36.824Z,989.93
2019-01-27T02:29:36.822Z,990.06
2019-01-27T02:30:36.810Z,990.08
2019-01-27T02:31:36.822Z,989.87
2019-01-27T02:32:36.788Z,990.02
2019-01-27T02:33:36.775Z,989.85
2019-01-27T02:34:36.771Z,990.06
2019-01-27T02:35:36.751Z,989.82
2019-01-27T02:36:36.756Z,989.79
2019-01-27T02:37:36.741Z,989.82
2019-01-27T02:38:36.732Z,989.79
2019-01-27T02:39:36.703Z,989.74
2019-01-27T02:40:36.709Z,989.72
2019-01-27T02:41:36.709Z,989.73
2019-01-27T02:42:36.680Z,989.73
2019-01-27T02:43:36.664Z,989.72
2019-01-27T02:44:36.664Z,989.79
2019-01-27T02:45:36.640Z,989.71
2019-01-27T02:46:36.649Z,989.58
2019-01-27T02:47:36.619Z,989.55
2019-01-27T02:48:36.605Z,989.52
2019-01-27T02:49:36.603Z,989.54
2019-01-27T02:50:36.603Z,989.47
2019-01-27T02:51:36.607Z,989.58
2019-01-27T02:52:36.591Z,989.56
2019-01-27T02:53:36.559Z,989.38
2019-01-27T02:54:36.555Z,989.41
2019-01-27T02:55:36.541Z,989.31
2019-01-27T02:56:36.535Z,989.33
2019-01-27T02:57:36.527Z,989.35
2019-01-27T02:58:36.493Z,989.22
2019-01-27T02:59:36.495Z,989.26
2019-01-27T03:00:36.468Z,989.33
2019-01-27T03:01:36.481Z,989.31
2019-01-27T03:02:36.461Z,989.43
2019-01-27T03:03:36.477Z,989.41
2019-01-27T03:04:36.429Z,989.38
2019-01-27T03:05:36.435Z,989.37
2019-01-27T03:06:36.418Z,989.29
2019-01-27T03:07:36.422Z,989.28
2019-01-27T03:08:36.385Z,989.25
2019-01-27T03:09:36.366Z,989.15
2019-01-27T03:10:36.368Z,989.15
2019-01-27T03:11:36.359Z,989.00
2019-01-27T03:12:36.382Z,988.97
2019-01-27T03:13:36.329Z,988.98
2019-01-27T03:14:36.320Z,988.91
2019-01-27T03:15:36.315Z,988.95
2019-01-27T03:16:36.301Z,988.94
2019-01-27T03:17:36.308Z,988.96
2019-01-27T03:18:36.268Z,988.91
2019-01-27T03:19:36.270Z,989.00
2019-01-27T03:20:36.264Z,988.88
2019-01-27T03:21:36.242Z,988.83
2019-01-27T03:22:36.260Z,988.77
2019-01-27T03:23:36.223Z,988.80
2019-01-27T03:24:36.209Z,988.83
2019-01-27T03:25:36.210Z,988.87
2019-01-27T03:26:36.190Z,988.93
2019-01-27T03:27:36.194Z,988.91
2019-01-27T03:28:36.170Z,988.86
2019-01-27T03:29:36.175Z,988.77
2019-01-27T03:30:36.171Z,988.78
2019-01-27T03:31:36.151Z,988.76
2019-01-27T03:32:36.166Z,988.77
2019-01-27T03:33:36.116Z,988.77
2019-01-27T03:34:36.127Z,988.94
2019-01-27T03:35:36.108Z,988.89
2019-01-27T03:36:36.089Z,988.73
2019-01-27T03:37:36.162Z,988.84
2019-01-27T03:38:36.082Z,988.83
2019-01-27T03:39:36.044Z,988.92
2019-01-27T03:40:36.036Z,988.75
2019-01-27T03:41:36.030Z,988.72
2019-01-27T03:42:36.044Z,988.83
2019-01-27T03:43:36.023Z,988.79
2019-01-27T03:44:35.988Z,988.76
2019-01-27T03:45:35.978Z,988.81
2019-01-27T03:46:35.983Z,988.78
2019-01-27T03:47:35.957Z,988.69
2019-01-27T03:48:35.966Z,988.77
2019-01-27T03:49:35.932Z,988.73
2019-01-27T03:50:35.920Z,988.59
2019-01-27T03:51:35.914Z,988.71
2019-01-27T03:52:35.902Z,988.65
2019-01-27T03:53:35.901Z,988.61
2019-01-27T03:54:35.882Z,988.50
2019-01-27T03:55:35.881Z,988.48
2019-01-27T03:56:35.856Z,988.49
2019-01-27T03:57:35.850Z,988.42
2019-01-27T03:58:35.851Z,988.43
2019-01-27T03:59:35.831Z,988.46
2019-01-27T04:00:35.804Z,988.50
2019-01-27T04:01:35.793Z,988.51
2019-01-27T04:02:35.793Z,988.39
2019-01-27T04:03:35.815Z,988.32
2019-01-27T04:04:35.765Z,988.33
2019-01-27T04:05:35.762Z,988.33
2019-01-27T04:06:35.740Z,988.24
2019-01-27T04:07:35.746Z,988.21
2019-01-27T04:08:35.732Z,988.21
2019-01-27T04:09:35.717Z,988.19
2019-01-27T04:10:35.700Z,988.14
2019-01-27T04:11:35.702Z,988.10
2019-01-27T04:12:35.678Z,988.12
2019-01-27T04:13:35.709Z,988.09
2019-01-27T04:14:35.656Z,988.11
2019-01-27T04:15:35.659Z,988.04
2019-01-27T04:16:35.627Z,988.07
2019-01-27T04:17:35.630Z,988.04
2019-01-27T04:18:35.619Z,988.09
2019-01-27T04:19:35.616Z,987.99
2019-01-27T04:20:35.592Z,988.03
2019-01-27T04:21:35.581Z,987.98
2019-01-27T04:22:35.568Z,987.91
2019-01-27T04:23:35.559Z,988.07
2019-01-27T04:24:35.565Z,987.96
2019-01-27T04:25:35.539Z,987.96
2019-01-27T04:26:35.526Z,987.92
2019-01-27T04:27:35.505Z,987.84
2019-01-27T04:28:35.508Z,987.95
2019-01-27T04:29:35.502Z,987.89
2019-01-27T04:30:35.501Z,987.95
2019-01-27T04:31:35.480Z,987.99
2019-01-27T04:32:35.452Z,987.96
2019-01-27T04:33:35.444Z,987.91
2019-01-27T04:34:35.457Z,987.88
2019-01-27T04:35:35.424Z,987.97
2019-01-27T04:36:35.417Z,987.96
2019-01-27T04:37:35.400Z,987.90
2019-01-27T04:38:35.393Z,987.95
2019-01-27T04:39:35.414Z,987.89
2019-01-27T04:40:35.382Z,987.88
2019-01-27T04:41:35.363Z,987.79
2019-01-27T04:42:35.339Z,987.79
2019-01-27T04:43:35.342Z,987.80
2019-01-27T04:44:35.348Z,987.73
2019-01-27T04:45:35.320Z,987.76
2019-01-27T04:46:35.315Z,987.64
2019-01-27T04:47:35.297Z,987.70
2019-01-27T04:48:35.309Z,987.68
2019-01-27T04:49:35.290Z,987.66
2019-01-27T04:50:35.258Z,987.53
2019-01-27T04:51:35.254Z,987.62
2019-01-27T04:52:35.237Z,987.62
2019-01-27T04:53:35.234Z,987.60
2019-01-27T04:54:35.220Z,987.76
2019-01-27T04:55:35.209Z,987.71
2019-01-27T04:56:35.191Z,987.69
2019-01-27T04:57:35.206Z,987.63
2019-01-27T04:58:35.173Z,987.59
2019-01-27T04:59:35.182Z,987.47
2019-01-27T05:00:35.160Z,987.56
2019-01-27T05:01:35.141Z,987.54
2019-01-27T05:02:35.122Z,987.55
2019-01-27T05:03:35.105Z,987.55
2019-01-27T05:04:35.113Z,987.44
2019-01-27T05:05:35.120Z,987.44
2019-01-27T05:06:35.078Z,987.42
2019-01-27T05:07:35.064Z,987.41
2019-01-27T05:08:35.076Z,987.40
2019-01-27T05:09:35.045Z,987.45
2019-01-27T05:10:35.056Z,987.40
2019-01-27T05:11:35.036Z,987.47
2019-01-27T05:12:35.026Z,987.39
2019-01-27T05:13:35.004Z,987.39
2019-01-27T05:14:34.994Z,987.43
2019-01-27T05:15:35.014Z,987.44
2019-01-27T05:16:34.988Z,987.40
2019-01-27T05:17:34.964Z,987.29
2019-01-27T05:18:34.998Z,987.23
2019-01-27T05:19:34.933Z,987.27
2019-01-27T05:20:34.948Z,987.18
2019-01-27T05:21:34.935Z,987.25
2019-01-27T05:22:34.911Z,987.33
2019-01-27T05:23:34.905Z,987.19
2019-01-27T05:24:34.882Z,987.17
2019-01-27T05:25:34.899Z,987.28
2019-01-27T05:26:34.862Z,987.11
2019-01-27T05:27:34.862Z,987.12
2019-01-27T05:28:34.847Z,987.12
2019-01-27T05:29:34.844Z,987.10
2019-01-27T05:30:34.870Z,987.07
2019-01-27T05:31:34.806Z,987.13
2019-01-27T05:32:34.805Z,987.24
2019-01-27T05:33:34.787Z,987.24
2019-01-27T05:34:34.778Z,987.15
2019-01-27T05:35:34.796Z,987.21
2019-01-27T05:36:34.767Z,987.14
2019-01-27T05:37:34.740Z,987.06
2019-01-27T05:38:34.751Z,987.06
2019-01-27T05:39:34.725Z,987.06
2019-01-27T05:40:34.711Z,987.04
2019-01-27T05:41:34.705Z,986.96
2019-01-27T05:42:34.680Z,986.92
2019-01-27T05:43:34.675Z,986.90
2019-01-27T05:44:34.685Z,986.86
2019-01-27T05:45:34.663Z,986.89
2019-01-27T05:46:34.663Z,986.90
2019-01-27T05:47:34.630Z,986.98
2019-01-27T05:48:34.615Z,986.76
2019-01-27T05:49:34.618Z,986.77
2019-01-27T05:50:34.609Z,986.93
2019-01-27T05:51:34.611Z,986.93
2019-01-27T05:52:34.583Z,986.81
2019-01-27T05:53:34.570Z,986.80
2019-01-27T05:54:34.553Z,986.77
2019-01-27T05:55:34.549Z,986.79
2019-01-27T05:56:34.549Z,986.75
2019-01-27T05:57:34.523Z,986.76
2019-01-27T05:58:34.525Z,986.77
2019-01-27T05:59:34.503Z,986.73
2019-01-27T06:00:34.483Z,986.82
2019-01-27T06:01:34.495Z,986.84
2019-01-27T06:02:34.473Z,986.84
2019-01-27T06:03:34.460Z,986.79
2019-01-27T06:04:34.461Z,986.75
2019-01-27T06:05:34.423Z,986.65
2019-01-27T06:06:34.434Z,986.59
2019-01-27T06:07:34.409Z,986.80
2019-01-27T06:08:34.405Z,986.62
2019-01-27T06:09:34.389Z,986.74
2019-01-27T06:10:34.389Z,986.64
2019-01-27T06:11:34.397Z,986.68
2019-01-27T06:12:34.362Z,986.67
2019-01-27T06:13:34.351Z,986.64
2019-01-27T06:14:34.321Z,986.57
2019-01-27T06:15:34.325Z,986.60
2019-01-27T06:16:34.355Z,986.69
2019-01-27T06:17:34.346Z,986.52
2019-01-27T06:18:34.290Z,986.49
2019-01-27T06:19:34.286Z,986.51
2019-01-27T06:20:34.277Z,986.44
2019-01-27T06:21:34.286Z,986.45
2019-01-27T06:22:34.245Z,986.35
2019-01-27T06:23:34.239Z,986.41
2019-01-27T06:24:34.222Z,986.38
2019-01-27T06:25:34.218Z,986.43
2019-01-27T06:26:34.196Z,986.37
2019-01-27T06:27:34.206Z,986.39
2019-01-27T06:28:34.185Z,986.30
2019-01-27T06:29:34.164Z,986.32
2019-01-27T06:30:34.154Z,986.38
2019-01-27T06:31:34.162Z,986.34
2019-01-27T06:32:34.167Z,986.40
2019-01-27T06:33:34.130Z,986.39
2019-01-27T06:34:34.114Z,986.29
2019-01-27T06:35:34.104Z,986.26
2019-01-27T06:36:34.097Z,986.33
2019-01-27T06:37:34.107Z,986.28
2019-01-27T06:38:34.070Z,986.23
2019-01-27T06:39:34.058Z,986.27
2019-01-27T06:40:34.063Z,986.29
2019-01-27T06:41:34.042Z,986.21
2019-01-27T06:42:34.059Z,986.20
2019-01-27T06:43:34.009Z,986.24
2019-01-27T06:44:34.006Z,986.21
2019-01-27T06:45:34.003Z,986.16
2019-01-27T06:46:33.989Z,986.17
2019-01-27T06:47:34.018Z,986.29
2019-01-27T06:48:33.961Z,986.26
2019-01-27T06:49:33.950Z,986.15
2019-01-27T06:50:33.939Z,986.31
2019-01-27T06:51:33.953Z,986.22
2019-01-27T06:52:33.931Z,986.28
2019-01-27T06:53:33.900Z,986.17
2019-01-27T06:54:33.891Z,986.10
2019-01-27T06:55:33.887Z,986.11
2019-01-27T06:56:33.872Z,986.08
2019-01-27T06:57:33.867Z,986.09
2019-01-27T06:58:33.845Z,986.12
2019-01-27T06:59:33.856Z,986.29
2019-01-27T07:00:33.820Z,986.22
2019-01-27T07:01:33.917Z,986.15
2019-01-27T07:02:33.853Z,986.02
2019-01-27T07:03:33.801Z,986.09
2019-01-27T07:04:33.775Z,986.05
2019-01-27T07:05:33.783Z,986.06
2019-01-27T07:06:33.758Z,985.98
2019-01-27T07:07:33.755Z,985.96
2019-01-27T07:08:33.761Z,986.03
2019-01-27T07:09:33.743Z,985.96
2019-01-27T07:10:33.709Z,986.01
2019-01-27T07:11:33.703Z,986.00
2019-01-27T07:12:34.392Z,986.01
2019-01-27T07:13:33.741Z,986.01
2019-01-27T07:14:33.685Z,985.90
2019-01-27T07:15:33.666Z,985.88
2019-01-27T07:16:33.654Z,985.89
2019-01-27T07:17:33.646Z,985.95
2019-01-27T07:18:33.665Z,985.86
2019-01-27T07:19:33.629Z,985.88
2019-01-27T07:20:33.610Z,985.85
2019-01-27T07:21:33.624Z,985.83
2019-01-27T07:22:33.591Z,985.87
2019-01-27T07:23:33.612Z,985.82
2019-01-27T07:24:33.567Z,985.79
2019-01-27T07:25:33.556Z,985.78
2019-01-27T07:26:33.553Z,985.79
2019-01-27T07:27:33.535Z,985.94
2019-01-27T07:28:33.607Z,985.89
2019-01-27T07:29:33.513Z,985.95
2019-01-27T07:30:33.501Z,985.75
2019-01-27T07:31:33.500Z,985.75
2019-01-27T07:32:34.431Z,985.74
2019-01-27T07:33:33.485Z,985.92
2019-01-27T07:34:33.457Z,985.92
2019-01-27T07:35:33.443Z,985.93
2019-01-27T07:36:33.434Z,985.73
2019-01-27T07:37:33.429Z,985.84
2019-01-27T07:38:33.427Z,985.79
2019-01-27T07:39:33.394Z,985.65
2019-01-27T07:40:33.397Z,985.83
2019-01-27T07:41:33.374Z,985.81
2019-01-27T07:42:33.375Z,985.74
2019-01-27T07:43:33.383Z,985.64
2019-01-27T07:44:33.359Z,985.61
2019-01-27T07:45:33.331Z,985.61
2019-01-27T07:46:33.321Z,985.68
2019-01-27T07:47:33.313Z,985.64
2019-01-27T07:48:33.298Z,985.60
2019-01-27T07:49:33.324Z,985.75
2019-01-27T07:50:33.282Z,985.77
2019-01-27T07:51:33.311Z,985.72
2019-01-27T07:52:33.262Z,985.72
2019-01-27T07:53:33.236Z,985.67
2019-01-27T07:54:33.275Z,985.67
2019-01-27T07:55:33.214Z,985.64
2019-01-27T07:56:33.214Z,985.48
2019-01-27T07:57:33.206Z,985.46
2019-01-27T07:58:33.193Z,985.47
2019-01-27T07:59:33.196Z,985.41
2019-01-27T08:00:33.184Z,985.53
2019-01-27T08:01:33.202Z,985.47
2019-01-27T08:02:33.153Z,985.53
2019-01-27T08:03:33.138Z,985.39
2019-01-27T08:04:33.144Z,985.36
2019-01-27T08:05:33.124Z,985.31
2019-01-27T08:06:33.123Z,985.46
2019-01-27T08:07:33.096Z,985.47
2019-01-27T08:08:33.070Z,985.35
2019-01-27T08:09:33.088Z,985.31
2019-01-27T08:10:33.066Z,985.38
2019-01-27T08:11:33.051Z,985.49
2019-01-27T08:12:33.028Z,985.49
2019-01-27T08:13:33.030Z,985.47
2019-01-27T08:14:33.032Z,985.48
2019-01-27T08:15:33.008Z,985.37
2019-01-27T08:16:32.986Z,985.40
2019-01-27T08:17:32.993Z,985.41
2019-01-27T08:18:32.968Z,985.28
2019-01-27T08:19:32.974Z,985.30
2019-01-27T08:20:32.952Z,985.25
2019-01-27T08:21:32.943Z,985.31
2019-01-27T08:22:32.928Z,985.36
2019-01-27T08:23:32.918Z,985.24
2019-01-27T08:24:32.945Z,985.31
2019-01-27T08:25:32.892Z,985.32
2019-01-27T08:26:32.889Z,985.43
2019-01-27T08:27:33.025Z,985.41
2019-01-27T08:28:33.845Z,985.23
2019-01-27T08:29:32.841Z,985.17
2019-01-27T08:30:32.876Z,985.13
2019-01-27T08:31:32.834Z,985.19
2019-01-27T08:32:32.823Z,985.16
2019-01-27T08:33:32.799Z,985.12
2019-01-27T08:34:32.806Z,985.25
2019-01-27T08:35:32.815Z,985.29
2019-01-27T08:36:32.776Z,985.14
2019-01-27T08:37:32.751Z,985.16
2019-01-27T08:38:32.751Z,985.09
2019-01-27T08:39:32.752Z,985.10
2019-01-27T08:40:32.747Z,985.05
2019-01-27T08:41:32.772Z,985.05
2019-01-27T08:42:32.708Z,985.10
2019-01-27T08:43:32.711Z,985.12
2019-01-27T08:44:32.679Z,985.02
2019-01-27T08:45:32.679Z,985.02
2019-01-27T08:46:32.660Z,984.98
2019-01-27T08:47:32.643Z,985.05
2019-01-27T08:48:32.640Z,985.03
2019-01-27T08:49:33.376Z,985.12
2019-01-27T08:50:32.629Z,985.17
2019-01-27T08:51:32.625Z,985.07
2019-01-27T08:52:32.602Z,985.00
2019-01-27T08:53:32.597Z,985.02
2019-01-27T08:54:32.574Z,985.05
2019-01-27T08:55:32.589Z,985.16
2019-01-27T08:56:32.561Z,985.12
2019-01-27T08:57:32.567Z,985.08
2019-01-27T08:58:32.530Z,984.94
2019-01-27T08:59:32.526Z,984.98
2019-01-27T09:00:32.539Z,984.97
2019-01-27T09:01:32.534Z,985.08
2019-01-27T09:02:32.491Z,985.09
2019-01-27T09:03:32.480Z,985.10
2019-01-27T09:04:32.477Z,985.08
2019-01-27T09:05:32.468Z,985.04
2019-01-27T09:06:32.439Z,985.01
2019-01-27T09:07:32.423Z,984.94
2019-01-27T09:08:32.452Z,984.94
2019-01-27T09:09:32.404Z,984.91
2019-01-27T09:10:32.472Z,985.00
2019-01-27T09:11:32.391Z,984.88
2019-01-27T09:12:32.384Z,984.95
2019-01-27T09:13:32.369Z,984.99
2019-01-27T09:14:32.358Z,984.95
2019-01-27T09:15:32.344Z,984.91
2019-01-27T09:16:32.346Z,984.85
2019-01-27T09:17:32.324Z,984.82
2019-01-27T09:18:32.323Z,984.83
2019-01-27T09:19:32.306Z,984.79
2019-01-27T09:20:32.280Z,984.81
2019-01-27T09:21:32.317Z,984.78
2019-01-27T09:22:32.276Z,984.78
2019-01-27T09:23:32.258Z,984.79
2019-01-27T09:24:32.268Z,984.74
2019-01-27T09:25:32.242Z,984.73
2019-01-27T09:26:32.245Z,984.84
2019-01-27T09:27:32.218Z,984.79
2019-01-27T09:28:32.197Z,984.76
2019-01-27T09:29:32.200Z,984.78
2019-01-27T09:30:32.190Z,984.64
2019-01-27T09:31:32.170Z,984.61
2019-01-27T09:32:32.169Z,984.66
2019-01-27T09:33:32.149Z,984.76
2019-01-27T09:34:32.131Z,984.68
2019-01-27T09:35:32.130Z,984.62
2019-01-27T09:36:32.135Z,984.57
2019-01-27T09:37:32.141Z,984.65
2019-01-27T09:38:32.101Z,984.56
2019-01-27T09:39:32.090Z,984.64
2019-01-27T09:40:32.072Z,984.55
2019-01-27T09:41:32.086Z,984.76
2019-01-27T09:42:32.040Z,984.72
2019-01-27T09:43:32.049Z,984.84
2019-01-27T09:44:32.024Z,984.74
2019-01-27T09:45:32.010Z,984.73
2019-01-27T09:46:32.010Z,984.77
2019-01-27T09:47:31.990Z,984.58
2019-01-27T09:48:31.975Z,984.57
2019-01-27T09:49:31.964Z,984.56
2019-01-27T09:50:31.980Z,984.50
2019-01-27T09:51:31.970Z,984.57
2019-01-27T09:52:31.944Z,984.52
2019-01-27T09:53:31.919Z,984.49
2019-01-27T09:54:31.934Z,984.44
2019-01-27T09:55:31.918Z,984.47
2019-01-27T09:56:31.904Z,984.45
2019-01-27T09:57:31.868Z,984.50
2019-01-27T09:58:31.856Z,984.52
2019-01-27T09:59:31.858Z,984.46
2019-01-27T10:00:31.848Z,984.40
2019-01-27T10:01:31.852Z,984.48
2019-01-27T10:02:34.948Z,984.40
2019-01-27T10:03:31.799Z,984.45
2019-01-27T10:04:31.791Z,984.38
2019-01-27T10:05:31.784Z,984.40
2019-01-27T10:06:31.787Z,984.37
2019-01-27T10:07:31.754Z,984.40
2019-01-27T10:08:31.740Z,984.33
2019-01-27T10:09:31.737Z,984.32
2019-01-27T10:10:31.728Z,984.28
2019-01-27T10:11:31.712Z,984.39
2019-01-27T10:12:31.719Z,984.33
2019-01-27T10:13:31.737Z,984.42
2019-01-27T10:14:31.676Z,984.50
2019-01-27T10:15:31.669Z,984.44
2019-01-27T10:16:31.664Z,984.47
2019-01-27T10:17:31.668Z,984.46
2019-01-27T10:18:31.644Z,984.42
2019-01-27T10:19:31.632Z,984.35
2019-01-27T10:20:31.620Z,984.42
2019-01-27T10:21:31.601Z,984.24
2019-01-27T10:22:31.613Z,984.32
2019-01-27T10:23:31.601Z,984.20
2019-01-27T10:24:31.596Z,984.23
2019-01-27T10:25:31.564Z,984.21
2019-01-27T10:26:31.556Z,984.19
2019-01-27T10:27:31.559Z,984.17
2019-01-27T10:28:31.525Z,984.14
2019-01-27T10:29:31.525Z,984.13
2019-01-27T10:30:31.513Z,984.14
2019-01-27T10:31:31.503Z,984.15
2019-01-27T10:32:31.510Z,984.06
2019-01-27T10:33:31.504Z,984.12
2019-01-27T10:34:31.455Z,984.15
2019-01-27T10:35:31.436Z,984.17
2019-01-27T10:36:31.435Z,983.98
2019-01-27T10:37:31.444Z,983.98
2019-01-27T10:38:31.408Z,983.98
2019-01-27T10:39:31.393Z,983.99
2019-01-27T10:40:31.397Z,984.02
2019-01-27T10:41:31.396Z,983.95
2019-01-27T10:42:31.362Z,984.03
2019-01-27T10:43:31.370Z,984.00
2019-01-27T10:44:31.359Z,984.00
2019-01-27T10:45:31.374Z,983.95
2019-01-27T10:46:31.335Z,983.94
2019-01-27T10:47:31.331Z,983.99
2019-01-27T10:48:31.377Z,983.93
2019-01-27T10:49:31.299Z,983.89
2019-01-27T10:50:31.267Z,983.91
2019-01-27T10:51:31.267Z,984.03
2019-01-27T10:52:31.260Z,984.04
2019-01-27T10:53:34.905Z,983.99
2019-01-27T10:54:31.232Z,983.88
2019-01-27T10:55:31.221Z,983.84
2019-01-27T10:56:31.251Z,983.88
2019-01-27T10:57:31.213Z,983.80
2019-01-27T10:58:31.204Z,983.91
2019-01-27T10:59:31.187Z,983.97
2019-01-27T11:00:31.167Z,983.85
2019-01-27T11:01:31.165Z,983.89
2019-01-27T11:02:36.678Z,983.68
2019-01-27T11:03:32.179Z,983.72
2019-01-27T11:04:31.118Z,983.78
2019-01-27T11:05:31.127Z,983.76
2019-01-27T11:06:31.104Z,983.78
2019-01-27T11:07:31.085Z,983.73
2019-01-27T11:08:31.095Z,983.77
2019-01-27T11:09:31.061Z,983.70
2019-01-27T11:10:31.072Z,983.67
2019-01-27T11:11:31.041Z,983.58
2019-01-27T11:12:31.035Z,983.68
2019-01-27T11:13:31.024Z,983.54
2019-01-27T11:14:31.006Z,983.53
2019-01-27T11:15:30.993Z,983.60
2019-01-27T11:16:30.977Z,983.59
2019-01-27T11:17:30.974Z,983.61
2019-01-27T11:18:30.994Z,983.61
2019-01-27T11:19:30.963Z,983.72
2019-01-27T11:20:30.947Z,983.74
2019-01-27T11:21:30.948Z,983.71
2019-01-27T11:22:30.928Z,983.61
2019-01-27T11:23:30.948Z,983.65
2019-01-27T11:24:30.910Z,983.68
2019-01-27T11:25:30.911Z,983.54
2019-01-27T11:26:30.882Z,983.59
2019-01-27T11:27:33.074Z,983.57
2019-01-27T11:28:30.837Z,983.59
2019-01-27T11:29:30.849Z,983.54
2019-01-27T11:30:30.818Z,983.46
2019-01-27T11:31:30.820Z,983.47
2019-01-27T11:32:30.830Z,983.35
2019-01-27T11:33:30.790Z,983.38
2019-01-27T11:34:30.803Z,983.35
2019-01-27T11:35:30.780Z,983.36
2019-01-27T11:36:30.758Z,983.33
2019-01-27T11:37:30.737Z,983.37
2019-01-27T11:38:30.739Z,983.34
2019-01-27T11:39:30.732Z,983.22
2019-01-27T11:40:30.712Z,983.26
2019-01-27T11:41:30.711Z,983.23
2019-01-27T11:42:30.701Z,983.26
2019-01-27T11:43:30.676Z,983.22
2019-01-27T11:44:30.692Z,983.13
2019-01-27T11:45:30.659Z,983.15
2019-01-27T11:46:30.661Z,983.11
2019-01-27T11:47:30.629Z,983.10
2019-01-27T11:48:30.628Z,983.16
2019-01-27T11:49:30.623Z,983.12
2019-01-27T11:50:30.621Z,983.10
2019-01-27T11:51:30.585Z,983.12
2019-01-27T11:52:30.585Z,983.07
2019-01-27T11:53:30.568Z,982.98
2019-01-27T11:54:30.579Z,983.05
2019-01-27T11:55:30.548Z,983.02
2019-01-27T11:56:30.537Z,982.99
2019-01-27T11:57:30.529Z,982.93
2019-01-27T11:58:30.503Z,982.97
2019-01-27T11:59:30.504Z,983.10
2019-01-27T12:00:30.536Z,983.03
2019-01-27T12:01:30.466Z,983.07
2019-01-27T12:02:30.455Z,983.03
2019-01-27T12:03:30.467Z,983.02
2019-01-27T12:04:30.455Z,982.98
2019-01-27T12:05:30.440Z,983.06
2019-01-27T12:06:30.440Z,982.89
2019-01-27T12:07:30.414Z,982.88
2019-01-27T12:08:30.397Z,982.89
2019-01-27T12:09:30.437Z,982.83
2019-01-27T12:10:30.366Z,982.84
2019-01-27T12:11:30.371Z,982.88
2019-01-27T12:12:30.357Z,983.02
2019-01-27T12:13:30.334Z,982.86
2019-01-27T12:14:30.380Z,982.81
2019-01-27T12:15:30.349Z,982.73
2019-01-27T12:16:30.306Z,982.91
2019-01-27T12:17:30.289Z,982.98
2019-01-27T12:18:30.280Z,982.95
2019-01-27T12:19:30.300Z,982.97
2019-01-27T12:20:30.272Z,982.96
2019-01-27T12:21:30.250Z,982.94
2019-01-27T12:22:30.236Z,982.77
2019-01-27T12:23:30.214Z,982.75
2019-01-27T12:24:30.217Z,982.87
2019-01-27T12:25:30.248Z,982.88
2019-01-27T12:26:30.185Z,982.88
2019-01-27T12:27:30.184Z,982.70
2019-01-27T12:28:30.173Z,982.78